createdAt,value
2018-03-24T00:00:27.033Z,0
2018-03-24T00:01:26.755Z,0
2018-03-24T00:02:26.729Z,0
2018-03-24T00:03:26.952Z,0
2018-03-24T00:04:26.914Z,0
2018-03-24T00:05:26.639Z,0
2018-03-24T00:06:26.607Z,0
2018-03-24T00:07:26.588Z,0
2018-03-24T00:08:26.862Z,0
2018-03-24T00:09:26.783Z,0
2018-03-24T00:10:26.493Z,0
2018-03-24T00:11:26.715Z,0
2018-03-24T00:12:26.691Z,0
2018-03-24T00:13:26.652Z,0
2018-03-24T00:14:26.638Z,0
2018-03-24T00:15:26.351Z,0
2018-03-24T00:16:25.820Z,0
2018-03-24T00:17:26.542Z,0
2018-03-24T00:18:26.526Z,0
2018-03-24T00:19:25.995Z,0
2018-03-24T00:20:26.212Z,0
2018-03-24T00:21:26.427Z,0
2018-03-24T00:22:26.148Z,0
2018-03-24T00:23:25.867Z,0
2018-03-24T00:24:26.334Z,0
2018-03-24T00:25:26.055Z,0
2018-03-24T00:26:26.035Z,0
2018-03-24T00:27:26.247Z,0
2018-03-24T00:28:26.215Z,0
2018-03-24T00:29:26.200Z,0
2018-03-24T00:30:25.660Z,0
2018-03-24T00:31:26.126Z,0
2018-03-24T00:32:26.112Z,0
2018-03-24T00:33:26.069Z,0
2018-03-24T00:34:26.038Z,0
2018-03-24T00:35:25.757Z,0
2018-03-24T00:36:25.236Z,0
2018-03-24T00:37:25.955Z,0
2018-03-24T00:38:25.922Z,0
2018-03-24T00:39:25.416Z,0
2018-03-24T00:40:25.619Z,0
2018-03-24T00:41:25.832Z,0
2018-03-24T00:42:25.808Z,0
2018-03-24T00:43:25.776Z,0
2018-03-24T00:44:25.800Z,0
2018-03-24T00:45:25.717Z,0
2018-03-24T00:46:25.686Z,0
2018-03-24T00:47:25.168Z,0
2018-03-24T00:48:25.381Z,0
2018-03-24T00:49:25.353Z,0
2018-03-24T00:50:25.572Z,0
2018-03-24T00:51:25.291Z,0
2018-03-24T00:52:25.511Z,0
2018-03-24T00:53:25.482Z,0
2018-03-24T00:54:25.477Z,0
2018-03-24T00:55:25.420Z,0
2018-03-24T00:56:25.144Z,0
2018-03-24T00:57:25.363Z,0
2018-03-24T00:58:25.338Z,0
2018-03-24T00:59:25.304Z,0
2018-03-24T01:00:25.276Z,0
2018-03-24T01:01:25.253Z,0
2018-03-24T01:02:24.962Z,0
2018-03-24T01:03:25.187Z,0
2018-03-24T01:04:25.156Z,0
2018-03-24T01:05:25.127Z,0
2018-03-24T01:06:25.098Z,0
2018-03-24T01:07:25.068Z,0
2018-03-24T01:08:25.035Z,0
2018-03-24T01:09:25.006Z,0
2018-03-24T01:10:24.744Z,0
2018-03-24T01:11:24.957Z,0
2018-03-24T01:12:24.853Z,0
2018-03-24T01:13:24.882Z,0
2018-03-24T01:14:24.615Z,0
2018-03-24T01:15:24.336Z,0
2018-03-24T01:16:24.856Z,0
2018-03-24T01:17:24.775Z,0
2018-03-24T01:18:24.489Z,0
2018-03-24T01:19:24.453Z,0
2018-03-24T01:20:24.435Z,0
2018-03-24T01:21:24.660Z,0
2018-03-24T01:22:24.377Z,0
2018-03-24T01:23:24.590Z,0
2018-03-24T01:24:24.412Z,0
2018-03-24T01:25:24.526Z,0
2018-03-24T01:26:24.502Z,0
2018-03-24T01:27:24.474Z,0
2018-03-24T01:28:24.185Z,0
2018-03-24T01:29:24.401Z,0
2018-03-24T01:30:23.880Z,0
2018-03-24T01:31:24.097Z,0
2018-03-24T01:32:24.063Z,0
2018-03-24T01:33:24.298Z,0
2018-03-24T01:34:24.007Z,0
2018-03-24T01:35:23.977Z,0
2018-03-24T01:36:23.950Z,0
2018-03-24T01:37:24.170Z,0
2018-03-24T01:38:23.889Z,0
2018-03-24T01:39:23.858Z,0
2018-03-24T01:40:24.070Z,0
2018-03-24T01:41:24.054Z,0
2018-03-24T01:42:24.013Z,0
2018-03-24T01:43:23.737Z,0
2018-03-24T01:44:23.953Z,0
2018-03-24T01:45:23.920Z,0
2018-03-24T01:46:23.900Z,0
2018-03-24T01:47:23.861Z,0
2018-03-24T01:48:23.838Z,0
2018-03-24T01:49:23.799Z,0
2018-03-24T01:50:23.774Z,0
2018-03-24T01:51:23.796Z,0
2018-03-24T01:52:23.712Z,0
2018-03-24T01:53:23.687Z,0
2018-03-24T01:54:23.653Z,0
2018-03-24T01:55:23.619Z,0
2018-03-24T01:56:23.591Z,0
2018-03-24T01:57:23.559Z,0
2018-03-24T01:58:23.283Z,0
2018-03-24T01:59:23.262Z,0
2018-03-24T02:00:23.228Z,0
2018-03-24T02:01:23.442Z,0
2018-03-24T02:02:23.420Z,0
2018-03-24T02:03:23.395Z,0
2018-03-24T02:04:23.427Z,0
2018-03-24T02:05:23.317Z,0
2018-03-24T02:06:23.037Z,0
2018-03-24T02:07:23.267Z,0
2018-03-24T02:08:23.228Z,0
2018-03-24T02:09:22.953Z,0
2018-03-24T02:10:23.172Z,0
2018-03-24T02:11:23.141Z,0
2018-03-24T02:12:23.114Z,0
2018-03-24T02:13:22.827Z,0
2018-03-24T02:14:23.094Z,0
2018-03-24T02:15:22.769Z,0
2018-03-24T02:16:22.746Z,0
2018-03-24T02:17:22.711Z,0
2018-03-24T02:18:22.977Z,0
2018-03-24T02:19:22.650Z,0
2018-03-24T02:20:22.619Z,0
2018-03-24T02:21:22.836Z,0
2018-03-24T02:22:22.808Z,0
2018-03-24T02:23:22.525Z,0
2018-03-24T02:24:22.742Z,0
2018-03-24T02:25:22.715Z,0
2018-03-24T02:26:22.704Z,0
2018-03-24T02:27:22.413Z,0
2018-03-24T02:28:21.874Z,0
2018-03-24T02:29:22.589Z,0
2018-03-24T02:30:22.566Z,0
2018-03-24T02:31:22.553Z,0
2018-03-24T02:32:22.530Z,0
2018-03-24T02:33:22.231Z,0
2018-03-24T02:34:22.438Z,0
2018-03-24T02:35:22.422Z,0
2018-03-24T02:36:22.382Z,0
2018-03-24T02:37:22.351Z,0
2018-03-24T02:38:22.324Z,0
2018-03-24T02:39:22.297Z,0
2018-03-24T02:40:21.753Z,0
2018-03-24T02:41:22.227Z,0
2018-03-24T02:42:21.969Z,0
2018-03-24T02:43:21.918Z,0
2018-03-24T02:44:21.635Z,0
2018-03-24T02:45:22.111Z,0
2018-03-24T02:46:22.094Z,0
2018-03-24T02:47:22.058Z,0
2018-03-24T02:48:22.012Z,0
2018-03-24T02:49:21.975Z,0
2018-03-24T02:50:21.958Z,0
2018-03-24T02:51:21.923Z,0
2018-03-24T02:52:21.647Z,0
2018-03-24T02:53:21.616Z,0
2018-03-24T02:54:21.838Z,0
2018-03-24T02:55:21.806Z,0
2018-03-24T02:56:21.781Z,0
2018-03-24T02:57:21.740Z,0
2018-03-24T02:58:21.515Z,0
2018-03-24T02:59:21.436Z,0
2018-03-24T03:00:21.396Z,0
2018-03-24T03:01:21.394Z,0
2018-03-24T03:02:21.595Z,0
2018-03-24T03:03:21.587Z,0
2018-03-24T03:04:21.533Z,0
2018-03-24T03:05:21.498Z,0
2018-03-24T03:06:21.222Z,0
2018-03-24T03:07:21.437Z,0
2018-03-24T03:08:21.391Z,0
2018-03-24T03:09:21.118Z,0
2018-03-24T03:10:21.337Z,0
2018-03-24T03:11:21.300Z,0
2018-03-24T03:12:21.278Z,0
2018-03-24T03:13:21.393Z,0
2018-03-24T03:14:21.544Z,0
2018-03-24T03:15:21.178Z,0
2018-03-24T03:16:21.150Z,0
2018-03-24T03:17:21.124Z,0
2018-03-24T03:18:21.090Z,0
2018-03-24T03:19:21.057Z,0
2018-03-24T03:20:21.042Z,0
2018-03-24T03:21:20.749Z,0
2018-03-24T03:22:20.960Z,0
2018-03-24T03:23:20.925Z,0
2018-03-24T03:24:20.896Z,0
2018-03-24T03:25:20.864Z,0
2018-03-24T03:26:20.588Z,0
2018-03-24T03:27:20.807Z,0
2018-03-24T03:28:20.772Z,0
2018-03-24T03:29:20.754Z,0
2018-03-24T03:30:20.722Z,0
2018-03-24T03:31:20.711Z,0
2018-03-24T03:32:20.649Z,0
2018-03-24T03:33:20.614Z,0
2018-03-24T03:34:20.088Z,0
2018-03-24T03:35:20.309Z,0
2018-03-24T03:36:20.523Z,0
2018-03-24T03:37:20.572Z,0
2018-03-24T03:38:20.463Z,0
2018-03-24T03:39:20.432Z,0
2018-03-24T03:40:20.400Z,0
2018-03-24T03:41:20.366Z,0
2018-03-24T03:42:20.332Z,0
2018-03-24T03:43:20.061Z,0
2018-03-24T03:44:20.277Z,0
2018-03-24T03:45:19.999Z,0
2018-03-24T03:46:20.219Z,0
2018-03-24T03:47:20.036Z,0
2018-03-24T03:48:19.660Z,0
2018-03-24T03:49:19.621Z,0
2018-03-24T03:50:20.086Z,0
2018-03-24T03:51:20.055Z,0
2018-03-24T03:52:20.024Z,0
2018-03-24T03:53:19.994Z,0
2018-03-24T03:54:19.968Z,0
2018-03-24T03:55:19.691Z,0
2018-03-24T03:56:19.904Z,0
2018-03-24T03:57:19.617Z,0
2018-03-24T03:58:19.851Z,0
2018-03-24T03:59:19.308Z,0
2018-03-24T04:00:19.771Z,0
2018-03-24T04:01:19.751Z,0
2018-03-24T04:02:19.715Z,0
2018-03-24T04:03:19.440Z,0
2018-03-24T04:04:19.656Z,0
2018-03-24T04:05:19.617Z,0
2018-03-24T04:06:19.584Z,0
2018-03-24T04:07:19.059Z,0
2018-03-24T04:08:19.275Z,0
2018-03-24T04:09:19.491Z,0
2018-03-24T04:10:19.455Z,0
2018-03-24T04:11:19.429Z,0
2018-03-24T04:12:19.403Z,0
2018-03-24T04:13:19.116Z,0
2018-03-24T04:14:19.332Z,0
2018-03-24T04:15:19.444Z,0
2018-03-24T04:16:19.024Z,0
2018-03-24T04:17:19.247Z,0
2018-03-24T04:18:19.272Z,0
2018-03-24T04:19:19.178Z,0
2018-03-24T04:20:19.155Z,0
2018-03-24T04:21:18.868Z,0
2018-03-24T04:22:19.093Z,0
2018-03-24T04:23:18.807Z,0
2018-03-24T04:24:19.020Z,0
2018-03-24T04:25:18.988Z,0
2018-03-24T04:26:18.956Z,0
2018-03-24T04:27:18.677Z,0
2018-03-24T04:28:18.652Z,0
2018-03-24T04:29:18.373Z,0
2018-03-24T04:30:18.833Z,0
2018-03-24T04:31:18.807Z,0
2018-03-24T04:32:18.767Z,0
2018-03-24T04:33:18.738Z,0
2018-03-24T04:34:18.469Z,0
2018-03-24T04:35:18.679Z,0
2018-03-24T04:36:18.645Z,0
2018-03-24T04:37:18.616Z,0
2018-03-24T04:38:18.624Z,0
2018-03-24T04:39:18.049Z,0
2018-03-24T04:40:18.527Z,0
2018-03-24T04:41:18.488Z,0
2018-03-24T04:42:18.457Z,0
2018-03-24T04:43:17.948Z,0
2018-03-24T04:44:18.146Z,0
2018-03-24T04:45:18.357Z,0
2018-03-24T04:46:18.084Z,0
2018-03-24T04:47:17.795Z,0
2018-03-24T04:48:17.766Z,0
2018-03-24T04:49:17.987Z,0
2018-03-24T04:50:17.958Z,0
2018-03-24T04:51:18.169Z,4
2018-03-24T04:52:17.890Z,4
2018-03-24T04:53:17.871Z,0
2018-03-24T04:54:18.078Z,4
2018-03-24T04:55:17.808Z,4
2018-03-24T04:56:17.774Z,4
2018-03-24T04:57:17.481Z,8
2018-03-24T04:58:18.100Z,8
2018-03-24T04:59:17.927Z,8
2018-03-24T05:00:17.642Z,8
2018-03-24T05:01:17.852Z,12
2018-03-24T05:02:17.833Z,12
2018-03-24T05:03:17.546Z,16
2018-03-24T05:04:17.515Z,20
2018-03-24T05:05:17.482Z,24
2018-03-24T05:06:17.457Z,28
2018-03-24T05:07:17.665Z,32
2018-03-24T05:08:17.643Z,40
2018-03-24T05:09:17.119Z,48
2018-03-24T05:10:17.320Z,56
2018-03-24T05:11:17.542Z,64
2018-03-24T05:12:17.507Z,76
2018-03-24T05:13:17.504Z,88
2018-03-24T05:14:16.949Z,104
2018-03-24T05:15:17.414Z,124
2018-03-24T05:16:17.381Z,140
2018-03-24T05:17:17.156Z,156
2018-03-24T05:18:17.361Z,184
2018-03-24T05:19:17.043Z,208
2018-03-24T05:20:17.254Z,232
2018-03-24T05:21:16.727Z,256
2018-03-24T05:22:17.197Z,284
2018-03-24T05:23:17.168Z,312
2018-03-24T05:24:17.134Z,344
2018-03-24T05:25:16.846Z,376
2018-03-24T05:26:17.192Z,412
2018-03-24T05:27:16.545Z,448
2018-03-24T05:28:16.508Z,492
2018-03-24T05:29:16.718Z,536
2018-03-24T05:30:16.688Z,584
2018-03-24T05:31:16.655Z,632
2018-03-24T05:32:16.883Z,684
2018-03-24T05:33:16.883Z,732
2018-03-24T05:34:16.818Z,788
2018-03-24T05:35:16.784Z,840
2018-03-24T05:36:16.758Z,896
2018-03-24T05:37:16.473Z,956
2018-03-24T05:38:16.447Z,1020
2018-03-24T05:39:16.762Z,1080
2018-03-24T05:40:16.381Z,1144
2018-03-24T05:41:16.595Z,1196
2018-03-24T05:42:16.562Z,1264
2018-03-24T05:43:16.283Z,1340
2018-03-24T05:44:16.014Z,1428
2018-03-24T05:45:16.221Z,1532
2018-03-24T05:46:16.438Z,1640
2018-03-24T05:47:16.171Z,1732
2018-03-24T05:48:16.390Z,1828
2018-03-24T05:49:16.110Z,1928
2018-03-24T05:50:16.324Z,2016
2018-03-24T05:51:16.279Z,2080
2018-03-24T05:52:16.310Z,2112
2018-03-24T05:53:16.242Z,2132
2018-03-24T05:54:16.192Z,2168
2018-03-24T05:55:16.173Z,2232
2018-03-24T05:56:16.136Z,2300
2018-03-24T05:57:16.098Z,2376
2018-03-24T05:58:15.826Z,2440
2018-03-24T05:59:15.785Z,2500
2018-03-24T06:00:16.001Z,2576
2018-03-24T06:01:15.973Z,2664
2018-03-24T06:02:15.694Z,2772
2018-03-24T06:03:15.915Z,2864
2018-03-24T06:04:15.644Z,2960
2018-03-24T06:05:15.865Z,3092
2018-03-24T06:06:15.567Z,3208
2018-03-24T06:07:15.544Z,3372
2018-03-24T06:08:15.272Z,3528
2018-03-24T06:09:15.724Z,3676
2018-03-24T06:10:15.732Z,3800
2018-03-24T06:11:15.419Z,3912
2018-03-24T06:12:15.381Z,3972
2018-03-24T06:13:15.400Z,4016
2018-03-24T06:14:15.585Z,4012
2018-03-24T06:15:15.294Z,4044
2018-03-24T06:16:15.273Z,4184
2018-03-24T06:17:15.233Z,4396
2018-03-24T06:18:15.450Z,4632
2018-03-24T06:19:15.424Z,4880
2018-03-24T06:20:15.397Z,5128
2018-03-24T06:21:15.361Z,5388
2018-03-24T06:22:15.387Z,5640
2018-03-24T06:23:15.302Z,5816
2018-03-24T06:24:15.266Z,5920
2018-03-24T06:25:14.990Z,5972
2018-03-24T06:26:14.728Z,6004
2018-03-24T06:27:15.191Z,6068
2018-03-24T06:28:14.902Z,6112
2018-03-24T06:29:15.127Z,6184
2018-03-24T06:30:14.845Z,6300
2018-03-24T06:31:15.062Z,6412
2018-03-24T06:32:15.036Z,6536
2018-03-24T06:33:15.012Z,6692
2018-03-24T06:34:14.724Z,6908
2018-03-24T06:35:14.696Z,7128
2018-03-24T06:36:14.938Z,7344
2018-03-24T06:37:14.634Z,7532
2018-03-24T06:38:14.912Z,7656
2018-03-24T06:39:14.830Z,7752
2018-03-24T06:40:14.298Z,7804
2018-03-24T06:41:14.776Z,7884
2018-03-24T06:42:14.740Z,8000
2018-03-24T06:43:14.466Z,8048
2018-03-24T06:44:14.681Z,8056
2018-03-24T06:45:14.403Z,8164
2018-03-24T06:46:14.378Z,8392
2018-03-24T06:47:14.596Z,8624
2018-03-24T06:48:14.318Z,8724
2018-03-24T06:49:14.037Z,8744
2018-03-24T06:50:14.512Z,8764
2018-03-24T06:51:13.986Z,8776
2018-03-24T06:52:14.461Z,8752
2018-03-24T06:53:14.431Z,8728
2018-03-24T06:54:14.402Z,8640
2018-03-24T06:55:14.122Z,8504
2018-03-24T06:56:14.089Z,8376
2018-03-24T06:57:14.308Z,8236
2018-03-24T06:58:14.036Z,8096
2018-03-24T06:59:14.265Z,8008
2018-03-24T07:00:13.729Z,7960
2018-03-24T07:01:14.202Z,7896
2018-03-24T07:02:14.171Z,7884
2018-03-24T07:03:13.898Z,7876
2018-03-24T07:04:14.134Z,7796
2018-03-24T07:05:14.094Z,7704
2018-03-24T07:06:14.056Z,7664
2018-03-24T07:07:13.797Z,7636
2018-03-24T07:08:13.759Z,7600
2018-03-24T07:09:13.478Z,7568
2018-03-24T07:10:13.954Z,7528
2018-03-24T07:11:13.927Z,7504
2018-03-24T07:12:13.921Z,7476
2018-03-24T07:13:13.615Z,7472
2018-03-24T07:14:13.844Z,7464
2018-03-24T07:15:13.803Z,7460
2018-03-24T07:16:13.790Z,7460
2018-03-24T07:17:13.759Z,7476
2018-03-24T07:18:13.733Z,7504
2018-03-24T07:19:13.451Z,7568
2018-03-24T07:20:13.418Z,7628
2018-03-24T07:21:13.702Z,7672
2018-03-24T07:22:13.614Z,7704
2018-03-24T07:23:13.592Z,7748
2018-03-24T07:24:13.316Z,7784
2018-03-24T07:25:13.545Z,7816
2018-03-24T07:26:13.514Z,7872
2018-03-24T07:27:13.231Z,7920
2018-03-24T07:28:13.455Z,7968
2018-03-24T07:29:13.181Z,8016
2018-03-24T07:30:12.903Z,8048
2018-03-24T07:31:13.122Z,8104
2018-03-24T07:32:13.106Z,8176
2018-03-24T07:33:13.059Z,8244
2018-03-24T07:34:13.036Z,8324
2018-03-24T07:35:13.253Z,8408
2018-03-24T07:36:13.250Z,8484
2018-03-24T07:37:12.958Z,8560
2018-03-24T07:38:13.177Z,8624
2018-03-24T07:39:12.396Z,8680
2018-03-24T07:40:13.116Z,8740
2018-03-24T07:41:13.098Z,8768
2018-03-24T07:42:12.881Z,8788
2018-03-24T07:43:12.782Z,8816
2018-03-24T07:44:12.754Z,8820
2018-03-24T07:45:12.976Z,8784
2018-03-24T07:46:12.951Z,8728
2018-03-24T07:47:12.674Z,8696
2018-03-24T07:48:12.904Z,8656
2018-03-24T07:49:12.620Z,8604
2018-03-24T07:50:12.344Z,8556
2018-03-24T07:51:12.860Z,8516
2018-03-24T07:52:12.538Z,8476
2018-03-24T07:53:12.759Z,8424
2018-03-24T07:54:12.478Z,8384
2018-03-24T07:55:12.701Z,8356
2018-03-24T07:56:12.526Z,8336
2018-03-24T07:57:12.652Z,8312
2018-03-24T07:58:12.123Z,8292
2018-03-24T07:59:12.352Z,8272
2018-03-24T08:00:12.571Z,8268
2018-03-24T08:01:12.535Z,8276
2018-03-24T08:02:12.257Z,8288
2018-03-24T08:03:12.486Z,8308
2018-03-24T08:04:12.508Z,8328
2018-03-24T08:05:12.428Z,8356
2018-03-24T08:06:12.150Z,8364
2018-03-24T08:07:12.120Z,8392
2018-03-24T08:08:12.344Z,8412
2018-03-24T08:09:12.321Z,8448
2018-03-24T08:10:11.795Z,8496
2018-03-24T08:11:15.375Z,8548
2018-03-24T08:12:13.034Z,8600
2018-03-24T08:13:11.967Z,8680
2018-03-24T08:14:12.603Z,8720
2018-03-24T08:15:12.160Z,8776
2018-03-24T08:16:12.690Z,8848
2018-03-24T08:17:12.104Z,8916
2018-03-24T08:18:11.836Z,9012
2018-03-24T08:19:11.554Z,9104
2018-03-24T08:20:12.024Z,9212
2018-03-24T08:21:12.001Z,9304
2018-03-24T08:22:11.719Z,9404
2018-03-24T08:23:11.700Z,9488
2018-03-24T08:24:11.921Z,9576
2018-03-24T08:25:11.392Z,9680
2018-03-24T08:26:11.621Z,9788
2018-03-24T08:27:11.999Z,9848
2018-03-24T08:28:11.561Z,9956
2018-03-24T08:29:11.781Z,10060
2018-03-24T08:30:11.505Z,10176
2018-03-24T08:31:11.728Z,10232
2018-03-24T08:32:11.706Z,10224
2018-03-24T08:33:11.798Z,10244
2018-03-24T08:34:11.649Z,10212
2018-03-24T08:35:11.677Z,10112
2018-03-24T08:36:11.104Z,10052
2018-03-24T08:37:11.580Z,10024
2018-03-24T08:38:11.302Z,10000
2018-03-24T08:39:11.520Z,9996
2018-03-24T08:40:11.489Z,9988
2018-03-24T08:41:10.968Z,9964
2018-03-24T08:42:11.442Z,9952
2018-03-24T08:43:11.175Z,9936
2018-03-24T08:44:11.140Z,9904
2018-03-24T08:45:11.112Z,9828
2018-03-24T08:46:11.338Z,9696
2018-03-24T08:47:11.405Z,9656
2018-03-24T08:48:11.282Z,9692
2018-03-24T08:49:11.266Z,9712
2018-03-24T08:50:11.447Z,9800
2018-03-24T08:51:10.958Z,9856
2018-03-24T08:52:10.929Z,9912
2018-03-24T08:53:11.154Z,9960
2018-03-24T08:54:11.128Z,10036
2018-03-24T08:55:11.770Z,10048
2018-03-24T08:56:10.331Z,10088
2018-03-24T08:57:10.803Z,10152
2018-03-24T08:58:10.775Z,10236
2018-03-24T08:59:11.000Z,10328
2018-03-24T09:00:10.973Z,10448
2018-03-24T09:01:10.455Z,10528
2018-03-24T09:02:11.012Z,10632
2018-03-24T09:03:10.651Z,10700
2018-03-24T09:04:10.631Z,10820
2018-03-24T09:05:10.352Z,10940
2018-03-24T09:06:10.822Z,11060
2018-03-24T09:07:10.554Z,11212
2018-03-24T09:08:10.278Z,11216
2018-03-24T09:09:10.496Z,11332
2018-03-24T09:10:10.473Z,11256
2018-03-24T09:11:10.447Z,11248
2018-03-24T09:12:10.186Z,11240
2018-03-24T09:13:10.151Z,11216
2018-03-24T09:14:10.126Z,11168
2018-03-24T09:15:10.758Z,11076
2018-03-24T09:16:10.577Z,10880
2018-03-24T09:17:10.300Z,10724
2018-03-24T09:18:10.284Z,10728
2018-03-24T09:19:10.252Z,10644
2018-03-24T09:20:10.224Z,10640
2018-03-24T09:21:10.445Z,10404
2018-03-24T09:22:10.481Z,10328
2018-03-24T09:23:10.409Z,10212
2018-03-24T09:24:10.417Z,10096
2018-03-24T09:25:10.030Z,10152
2018-03-24T09:26:09.861Z,10428
2018-03-24T09:27:11.263Z,10680
2018-03-24T09:28:10.070Z,10796
2018-03-24T09:29:09.755Z,10828
2018-03-24T09:30:09.732Z,10900
2018-03-24T09:31:09.966Z,10920
2018-03-24T09:32:09.688Z,11080
2018-03-24T09:33:09.910Z,11312
2018-03-24T09:34:10.137Z,11372
2018-03-24T09:35:09.958Z,11416
2018-03-24T09:36:09.834Z,11480
2018-03-24T09:37:10.067Z,11636
2018-03-24T09:38:09.288Z,11832
2018-03-24T09:39:09.516Z,12028
2018-03-24T09:40:09.492Z,12216
2018-03-24T09:41:09.974Z,12376
2018-03-24T09:42:09.944Z,12508
2018-03-24T09:43:09.916Z,12488
2018-03-24T09:44:09.900Z,12512
2018-03-24T09:45:09.617Z,12648
2018-03-24T09:46:09.846Z,12852
2018-03-24T09:47:09.324Z,13048
2018-03-24T09:48:09.548Z,13228
2018-03-24T09:49:09.528Z,13220
2018-03-24T09:50:09.748Z,13496
2018-03-24T09:51:09.758Z,13784
2018-03-24T09:52:09.208Z,13952
2018-03-24T09:53:09.435Z,14176
2018-03-24T09:54:09.412Z,14372
2018-03-24T09:55:09.633Z,15788
2018-03-24T09:56:09.361Z,17536
2018-03-24T09:57:09.340Z,17736
2018-03-24T09:58:09.381Z,17416
2018-03-24T09:59:09.558Z,17460
2018-03-24T10:00:09.019Z,17904
2018-03-24T10:01:09.252Z,18184
2018-03-24T10:02:09.221Z,16964
2018-03-24T10:03:09.211Z,16132
2018-03-24T10:04:09.427Z,17096
2018-03-24T10:05:09.412Z,17492
2018-03-24T10:06:09.132Z,18100
2018-03-24T10:07:08.866Z,19168
2018-03-24T10:08:09.444Z,18752
2018-03-24T10:09:09.326Z,18048
2018-03-24T10:10:09.302Z,17936
2018-03-24T10:11:08.524Z,17228
2018-03-24T10:12:08.746Z,16500
2018-03-24T10:13:09.328Z,15600
2018-03-24T10:14:09.218Z,14976
2018-03-24T10:15:08.936Z,14612
2018-03-24T10:16:08.913Z,14276
2018-03-24T10:17:08.893Z,13992
2018-03-24T10:18:09.172Z,13784
2018-03-24T10:19:08.853Z,14596
2018-03-24T10:20:09.081Z,15040
2018-03-24T10:21:08.806Z,14936
2018-03-24T10:22:08.785Z,14492
2018-03-24T10:23:08.512Z,14124
2018-03-24T10:24:08.491Z,13960
2018-03-24T10:25:08.716Z,13920
2018-03-24T10:26:08.702Z,13696
2018-03-24T10:27:08.676Z,13344
2018-03-24T10:28:08.903Z,13232
2018-03-24T10:29:08.635Z,12988
2018-03-24T10:30:08.864Z,13308
2018-03-24T10:31:08.341Z,14336
2018-03-24T10:32:08.564Z,15336
2018-03-24T10:33:08.560Z,15936
2018-03-24T10:34:08.025Z,16180
2018-03-24T10:35:08.758Z,16020
2018-03-24T10:36:08.487Z,15904
2018-03-24T10:37:08.708Z,15556
2018-03-24T10:38:08.744Z,14672
2018-03-24T10:39:08.427Z,14392
2018-03-24T10:40:08.402Z,14184
2018-03-24T10:41:08.374Z,14012
2018-03-24T10:42:08.605Z,14112
2018-03-24T10:43:08.340Z,13672
2018-03-24T10:44:08.071Z,14112
2018-03-24T10:45:08.041Z,14060
2018-03-24T10:46:08.268Z,14324
2018-03-24T10:47:08.250Z,15244
2018-03-24T10:48:08.474Z,15220
2018-03-24T10:49:08.217Z,15404
2018-03-24T10:50:08.464Z,15968
2018-03-24T10:51:08.195Z,16456
2018-03-24T10:52:08.412Z,16476
2018-03-24T10:53:08.388Z,16312
2018-03-24T10:54:07.859Z,16092
2018-03-24T10:55:07.831Z,15932
2018-03-24T10:56:08.308Z,15652
2018-03-24T10:57:08.343Z,15808
2018-03-24T10:58:08.353Z,16480
2018-03-24T10:59:07.746Z,17132
2018-03-24T11:00:07.974Z,17452
2018-03-24T11:01:07.703Z,17444
2018-03-24T11:02:08.191Z,17516
2018-03-24T11:03:07.663Z,17516
2018-03-24T11:04:08.244Z,17248
2018-03-24T11:05:08.121Z,17260
2018-03-24T11:06:07.846Z,17232
2018-03-24T11:07:07.835Z,17348
2018-03-24T11:08:07.561Z,17152
2018-03-24T11:09:07.792Z,16192
2018-03-24T11:10:08.020Z,15792
2018-03-24T11:11:07.750Z,15672
2018-03-24T11:12:07.977Z,15096
2018-03-24T11:13:07.712Z,14932
2018-03-24T11:14:07.685Z,15500
2018-03-24T11:15:07.671Z,16248
2018-03-24T11:16:07.150Z,17148
2018-03-24T11:17:07.878Z,18368
2018-03-24T11:18:07.861Z,18752
2018-03-24T11:19:07.884Z,18880
2018-03-24T11:20:07.323Z,18880
2018-03-24T11:21:07.549Z,18944
2018-03-24T11:22:07.774Z,18944
2018-03-24T11:23:07.261Z,19200
2018-03-24T11:24:07.737Z,19584
2018-03-24T11:25:07.722Z,19808
2018-03-24T11:26:07.207Z,20096
2018-03-24T11:27:07.435Z,20448
2018-03-24T11:28:07.663Z,21152
2018-03-24T11:29:07.391Z,21792
2018-03-24T11:30:07.390Z,22720
2018-03-24T11:31:07.608Z,24000
2018-03-24T11:32:07.335Z,26144
2018-03-24T11:33:07.397Z,28192
2018-03-24T11:34:07.297Z,28640
2018-03-24T11:35:07.531Z,26656
2018-03-24T11:36:08.419Z,23872
2018-03-24T11:37:07.919Z,22528
2018-03-24T11:38:07.581Z,21664
2018-03-24T11:39:07.446Z,20736
2018-03-24T11:40:07.197Z,20736
2018-03-24T11:41:06.929Z,21216
2018-03-24T11:42:07.404Z,21888
2018-03-24T11:43:07.377Z,22400
2018-03-24T11:44:07.418Z,22848
2018-03-24T11:45:07.482Z,23488
2018-03-24T11:46:07.102Z,24416
2018-03-24T11:47:07.310Z,25504
2018-03-24T11:48:07.282Z,27136
2018-03-24T11:49:07.017Z,27008
2018-03-24T11:50:07.249Z,26272
2018-03-24T11:51:06.983Z,25728
2018-03-24T11:52:06.968Z,24480
2018-03-24T11:53:06.695Z,23616
2018-03-24T11:54:06.487Z,23232
2018-03-24T11:55:07.166Z,22880
2018-03-24T11:56:06.895Z,22400
2018-03-24T11:57:06.627Z,21984
2018-03-24T11:58:07.105Z,21696
2018-03-24T11:59:07.088Z,21600
2018-03-24T12:00:06.575Z,22176
2018-03-24T12:01:07.055Z,23008
2018-03-24T12:02:07.043Z,23616
2018-03-24T12:03:06.781Z,23616
2018-03-24T12:04:06.505Z,23360
2018-03-24T12:05:06.981Z,23200
2018-03-24T12:06:06.973Z,23392
2018-03-24T12:07:06.452Z,23776
2018-03-24T12:08:06.686Z,23712
2018-03-24T12:09:06.663Z,23680
2018-03-24T12:10:06.661Z,23808
2018-03-24T12:11:06.640Z,23904
2018-03-24T12:12:06.867Z,23808
2018-03-24T12:13:06.853Z,23456
2018-03-24T12:14:06.581Z,23264
2018-03-24T12:15:06.568Z,23200
2018-03-24T12:16:06.549Z,23552
2018-03-24T12:17:06.531Z,24224
2018-03-24T12:18:06.288Z,25184
2018-03-24T12:19:06.818Z,25888
2018-03-24T12:20:06.734Z,26144
2018-03-24T12:21:06.710Z,26368
2018-03-24T12:22:06.695Z,27072
2018-03-24T12:23:06.678Z,27200
2018-03-24T12:24:06.414Z,27232
2018-03-24T12:25:06.143Z,26848
2018-03-24T12:26:06.382Z,26528
2018-03-24T12:27:06.363Z,25920
2018-03-24T12:28:06.356Z,24992
2018-03-24T12:29:06.333Z,24576
2018-03-24T12:30:06.065Z,24448
2018-03-24T12:31:06.558Z,24768
2018-03-24T12:32:06.276Z,25088
2018-03-24T12:33:06.397Z,25312
2018-03-24T12:34:06.254Z,25504
2018-03-24T12:35:05.994Z,25344
2018-03-24T12:36:06.210Z,25184
2018-03-24T12:37:06.195Z,24768
2018-03-24T12:38:06.427Z,24384
2018-03-24T12:39:05.910Z,24096
2018-03-24T12:40:05.648Z,24064
2018-03-24T12:41:06.132Z,24192
2018-03-24T12:42:06.364Z,24448
2018-03-24T12:43:06.371Z,24512
2018-03-24T12:44:05.831Z,24320
2018-03-24T12:45:06.313Z,24416
2018-03-24T12:46:06.050Z,24512
2018-03-24T12:47:06.039Z,24416
2018-03-24T12:48:05.767Z,24416
2018-03-24T12:49:06.246Z,24320
2018-03-24T12:50:06.230Z,24192
2018-03-24T12:51:05.471Z,24064
2018-03-24T12:52:05.704Z,24128
2018-03-24T12:53:05.937Z,24256
2018-03-24T12:54:06.169Z,24256
2018-03-24T12:55:05.909Z,24384
2018-03-24T12:56:05.890Z,24384
2018-03-24T12:57:05.870Z,24608
2018-03-24T12:58:05.608Z,24416
2018-03-24T12:59:06.100Z,24256
2018-03-24T13:00:05.826Z,24096
2018-03-24T13:01:05.559Z,23712
2018-03-24T13:02:05.293Z,23456
2018-03-24T13:03:06.028Z,23360
2018-03-24T13:04:05.760Z,22912
2018-03-24T13:05:05.492Z,22816
2018-03-24T13:06:05.729Z,22528
2018-03-24T13:07:05.973Z,22368
2018-03-24T13:08:05.446Z,22272
2018-03-24T13:09:05.429Z,22336
2018-03-24T13:10:05.910Z,22496
2018-03-24T13:11:05.645Z,22592
2018-03-24T13:12:05.734Z,22464
2018-03-24T13:13:05.868Z,22112
2018-03-24T13:14:05.616Z,21824
2018-03-24T13:15:05.830Z,21536
2018-03-24T13:16:05.810Z,21344
2018-03-24T13:17:05.547Z,21088
2018-03-24T13:18:05.789Z,20832
2018-03-24T13:19:05.513Z,20768
2018-03-24T13:20:05.506Z,20800
2018-03-24T13:21:05.479Z,20832
2018-03-24T13:22:05.216Z,20736
2018-03-24T13:23:05.444Z,20512
2018-03-24T13:24:04.932Z,20256
2018-03-24T13:25:05.666Z,19904
2018-03-24T13:26:05.655Z,19584
2018-03-24T13:27:05.639Z,19328
2018-03-24T13:28:05.605Z,19392
2018-03-24T13:29:05.094Z,19584
2018-03-24T13:30:05.327Z,19648
2018-03-24T13:31:05.413Z,19616
2018-03-24T13:32:05.549Z,19648
2018-03-24T13:33:05.530Z,19744
2018-03-24T13:34:05.518Z,19904
2018-03-24T13:35:05.249Z,20096
2018-03-24T13:36:05.469Z,20224
2018-03-24T13:37:05.460Z,20288
2018-03-24T13:38:05.446Z,20416
2018-03-24T13:39:05.422Z,20608
2018-03-24T13:40:05.404Z,20704